Terminal Aerodrome Forecast
Issued by NWS

Home | Current Version | Previous Version | Graphics & Text | Print | Product List | Glossary On
Versions: 1 2 3 4 5 6 7 8 9 10 11 12 13 14 15 16 17 18
000
FTUS43 KGRB 180900 AAA
TAFRHI
TAF AMD
KRHI 180902Z 1809/1906 32004KT P6SM SCT250
     FM181000 31003KT 3SM BR SCT250
      TEMPO 1810/1813 3/4SM BR BKN003
     FM181500 35006KT P6SM SCT030 BKN110
     FM182000 03007KT P6SM SCT050 BKN100
     FM190100 11005KT P6SM SCT120=

USA.gov is the U.S. government's official web portal to all federal, state and local government web resources and services.